Time;durP1;ratioP1;P1;durP2;ratioP2;P2;SDS_P1;SDS_P2;PMS_P1;PMS_P2;Temp;Humidity;BMP_temperature;BMP_pressure;BME280_temperature;BME280_humidity;BME280_pressure;Samples;Min_cycle;Max_cycle;Signal;HPM_P1;HPM_P2
2022/06/08 00:02:07;;;;;;;8.85;3.40;;;13.10;99.90;;;;;;5015017;28;20050;-74
2022/06/08 00:04:33;;;;;;;8.85;3.25;;;13.10;99.90;;;;;;5015441;28;20053;-73
2022/06/08 00:06:59;;;;;;;5.85;3.25;;;13.10;99.90;;;;;;5014583;28;20054;-73
2022/06/08 00:09:25;;;;;;;9.35;3.58;;;13.10;99.90;;;;;;4997521;28;20049;-73
2022/06/08 00:11:51;;;;;;;6.88;3.03;;;13.00;99.90;;;;;;5014826;28;20245;-74
2022/06/08 00:14:17;;;;;;;8.38;3.63;;;13.10;99.90;;;;;;5013812;28;20056;-74
2022/06/08 00:16:43;;;;;;;7.05;3.60;;;13.00;99.90;;;;;;5014763;28;20053;-73
2022/06/08 00:19:09;;;;;;;5.50;3.45;;;13.10;99.90;;;;;;4997393;28;20042;-74
2022/06/08 00:21:35;;;;;;;10.00;3.63;;;13.10;99.90;;;;;;4997337;28;20092;-74
2022/06/08 00:24:01;;;;;;;5.38;3.53;;;13.10;99.90;;;;;;4997224;28;20046;-73
2022/06/08 00:26:27;;;;;;;10.35;4.40;;;13.10;99.90;;;;;;5014360;28;20045;-74
2022/06/08 00:28:53;;;;;;;9.68;4.68;;;13.10;99.90;;;;;;5014463;28;20501;-73
2022/06/08 00:31:19;;;;;;;9.40;4.20;;;13.00;99.90;;;;;;4997469;28;20054;-73
2022/06/08 00:33:45;;;;;;;9.85;3.80;;;13.00;99.90;;;;;;4980822;28;20050;-73
2022/06/08 00:36:11;;;;;;;6.90;3.90;;;12.90;99.90;;;;;;4996952;28;20112;-74
2022/06/08 00:38:37;;;;;;;8.52;3.50;;;12.90;99.90;;;;;;5014578;28;20053;-74
2022/06/08 00:41:39;;;;;;;8.93;3.97;;;12.80;99.90;;;;;;4996963;28;20057;-74
2022/06/08 00:44:31;;;;;;;8.30;3.40;;;12.80;99.90;;;;;;5014689;28;20046;-73
2022/06/08 00:46:59;;;;;;;5.65;3.83;;;12.80;99.90;;;;;;4997156;28;20054;-73
2022/06/08 00:49:54;;;;;;;6.65;3.63;;;12.80;99.90;;;;;;4996968;28;20398;-74
2022/06/08 00:52:20;;;;;;;7.15;3.78;;;12.80;99.90;;;;;;5014079;28;20084;-73
2022/06/08 00:54:59;;;;;;;6.82;3.90;;;12.80;99.90;;;;;;4996217;28;20398;-73
2022/06/08 00:57:39;;;;;;;5.45;3.55;;;12.80;99.90;;;;;;5013788;28;20081;-74
2022/06/08 01:00:13;;;;;;;6.80;4.60;;;12.80;99.90;;;;;;5014763;28;20391;-73
2022/06/08 01:02:39;;;;;;;11.07;4.47;;;12.80;99.90;;;;;;4996382;28;20052;-73
2022/06/08 01:06:07;;;;;;;7.68;4.05;;;12.80;99.90;;;;;;5013704;28;20053;-73
2022/06/08 01:08:48;;;;;;;8.68;4.05;;;12.80;99.90;;;;;;4954174;28;20046;-73
2022/06/08 01:11:18;;;;;;;5.50;4.30;;;12.80;99.90;;;;;;5014020;28;20153;-73
2022/06/08 01:13:44;;;;;;;5.45;3.97;;;12.70;99.90;;;;;;4996680;28;20057;-73
2022/06/08 01:16:12;;;;;;;7.00;4.13;;;12.70;99.90;;;;;;4996324;28;20061;-73
2022/06/08 01:18:39;;;;;;;7.93;4.22;;;12.60;99.90;;;;;;4996464;28;20381;-73
2022/06/08 01:21:23;;;;;;;7.60;4.25;;;12.60;99.90;;;;;;4996444;28;20054;-73
2022/06/08 01:23:51;;;;;;;7.70;4.35;;;12.70;99.90;;;;;;5014166;28;20407;-73
2022/06/08 01:26:42;;;;;;;8.40;4.22;;;12.60;99.90;;;;;;4996580;28;20050;-74
2022/06/08 01:29:31;;;;;;;6.13;3.88;;;12.60;99.90;;;;;;4996588;28;20052;-74
2022/06/08 01:32:06;;;;;;;6.30;4.28;;;12.60;99.90;;;;;;5013731;28;20125;-73
2022/06/08 01:34:48;;;;;;;7.00;4.38;;;12.50;99.90;;;;;;5013787;28;20057;-73
2022/06/08 01:37:36;;;;;;;8.60;4.57;;;12.60;99.90;;;;;;4996365;28;20049;-74
2022/06/08 01:40:20;;;;;;;9.32;4.47;;;12.60;99.90;;;;;;4996459;28;20053;-73
2022/06/08 01:43:16;;;;;;;6.28;3.95;;;12.60;99.90;;;;;;4996114;28;20054;-73
2022/06/08 01:46:11;;;;;;;5.95;3.85;;;12.60;99.90;;;;;;4996288;28;20053;-73
2022/06/08 01:49:14;;;;;;;7.03;4.38;;;12.60;99.90;;;;;;4982514;28;20090;-73
2022/06/08 01:51:52;;;;;;;6.05;4.30;;;12.60;99.90;;;;;;4996266;28;20081;-74
2022/06/08 01:54:30;;;;;;;7.65;4.97;;;12.60;99.90;;;;;;5013479;28;20050;-73
2022/06/08 01:57:10;;;;;;;7.40;4.25;;;12.60;99.90;;;;;;5013553;28;20053;-73
2022/06/08 01:59:51;;;;;;;8.57;4.38;;;12.60;99.90;;;;;;4996345;28;20068;-73
2022/06/08 02:02:54;;;;;;;8.45;4.60;;;12.50;99.90;;;;;;5013351;28;20076;-74
2022/06/08 02:05:37;;;;;;;5.65;4.55;;;12.60;99.90;;;;;;5013242;28;20540;-73
2022/06/08 02:08:22;;;;;;;10.02;4.93;;;12.50;99.90;;;;;;4992557;28;20055;-73
2022/06/08 02:11:02;;;;;;;7.25;4.70;;;12.50;99.90;;;;;;4996728;28;20042;-74
2022/06/08 02:13:30;;;;;;;7.95;4.55;;;12.50;99.90;;;;;;4997617;28;20093;-74
2022/06/08 02:16:07;;;;;;;8.48;4.80;;;12.50;99.90;;;;;;4997518;28;20402;-74
2022/06/08 02:18:45;;;;;;;7.10;4.55;;;12.50;99.90;;;;;;4996631;28;20055;-74
2022/06/08 02:21:23;;;;;;;7.20;4.50;;;12.50;99.90;;;;;;4996599;28;20070;-74
2022/06/08 02:23:54;;;;;;;8.90;4.75;;;12.50;99.90;;;;;;4996583;28;20137;-73
2022/06/08 02:26:38;;;;;;;9.43;4.88;;;12.50;99.90;;;;;;4997413;28;20050;-74
2022/06/08 02:29:21;;;;;;;7.55;5.43;;;12.40;99.90;;;;;;4997305;28;20042;-73
2022/06/08 02:31:49;;;;;;;7.72;4.40;;;12.40;99.90;;;;;;4997321;28;20475;-73
2022/06/08 02:34:28;;;;;;;8.25;5.15;;;12.40;99.90;;;;;;4996141;28;20050;-74
2022/06/08 02:37:17;;;;;;;8.40;4.85;;;12.50;99.90;;;;;;4995976;28;20133;-74
2022/06/08 02:39:52;;;;;;;11.38;5.60;;;12.50;99.90;;;;;;4997168;28;20053;-74
2022/06/08 02:42:28;;;;;;;9.82;5.53;;;12.60;99.90;;;;;;4995916;28;20471;-74
2022/06/08 02:44:57;;;;;;;9.20;5.22;;;12.60;99.90;;;;;;4995944;28;20090;-73
2022/06/08 02:47:30;;;;;;;11.25;5.22;;;12.70;99.90;;;;;;4996838;28;20097;-73
2022/06/08 02:49:59;;;;;;;11.48;6.00;;;12.70;99.90;;;;;;4995917;28;20105;-74
2022/06/08 02:52:27;;;;;;;10.35;6.13;;;12.70;99.90;;;;;;4996764;28;20483;-74
2022/06/08 02:54:53;;;;;;;12.10;7.15;;;12.80;99.90;;;;;;4979598;28;20108;-74
2022/06/08 02:57:43;;;;;;;10.88;6.00;;;12.80;99.90;;;;;;4995818;28;20054;-73
2022/06/08 03:00:19;;;;;;;13.48;7.38;;;12.80;99.90;;;;;;4987712;28;20101;-73
2022/06/08 03:02:50;;;;;;;11.68;6.68;;;12.80;99.90;;;;;;4996600;28;20046;-73
2022/06/08 03:05:16;;;;;;;14.48;8.95;;;12.90;99.90;;;;;;4995378;28;20042;-73
2022/06/08 03:08:06;;;;;;;12.57;7.50;;;13.00;99.90;;;;;;5008739;28;20517;-73
2022/06/08 03:10:35;;;;;;;11.32;6.72;;;13.00;99.90;;;;;;5015776;28;20498;-73
2022/06/08 03:13:04;;;;;;;11.20;6.72;;;12.90;99.90;;;;;;4998315;28;20050;-74
2022/06/08 03:15:31;;;;;;;13.73;7.40;;;12.80;99.90;;;;;;4998395;28;20447;-74
2022/06/08 03:17:57;;;;;;;14.93;8.57;;;12.90;99.90;;;;;;4998639;28;20054;-73
2022/06/08 03:20:24;;;;;;;9.35;6.43;;;12.90;99.90;;;;;;5015598;28;20050;-73
2022/06/08 03:22:50;;;;;;;16.95;7.32;;;13.00;99.90;;;;;;4997750;28;20041;-73
2022/06/08 03:25:16;;;;;;;16.77;9.35;;;13.00;99.90;;;;;;4998543;28;20546;-73
2022/06/08 03:27:43;;;;;;;16.25;8.55;;;13.00;99.90;;;;;;5014764;28;20561;-73
2022/06/08 03:30:09;;;;;;;15.52;7.95;;;12.90;99.90;;;;;;4998682;28;20091;-73
2022/06/08 03:32:35;;;;;;;14.13;8.23;;;12.90;99.90;;;;;;4999058;28;20046;-73
2022/06/08 03:35:01;;;;;;;16.52;9.35;;;13.00;99.90;;;;;;4998054;28;20056;-74
2022/06/08 03:37:27;;;;;;;20.92;10.30;;;12.90;99.90;;;;;;5015602;28;20045;-74
2022/06/08 03:39:52;;;;;;;15.52;9.02;;;13.00;99.90;;;;;;5015177;28;20042;-74
2022/06/08 03:42:18;;;;;;;20.98;11.85;;;13.00;99.90;;;;;;4998044;28;20137;-75
2022/06/08 03:44:45;;;;;;;17.73;10.52;;;13.00;99.90;;;;;;5015501;28;20112;-73
2022/06/08 03:47:24;;;;;;;15.38;8.80;;;13.00;99.90;;;;;;4998198;28;20058;-73
2022/06/08 03:49:51;;;;;;;22.63;10.35;;;13.10;99.90;;;;;;4998196;28;20054;-73
2022/06/08 03:52:23;;;;;;;24.70;10.57;;;13.10;99.90;;;;;;4998047;28;20053;-74
2022/06/08 03:54:54;;;;;;;18.95;11.07;;;13.20;99.90;;;;;;4998054;28;20474;-74
2022/06/08 03:57:22;;;;;;;18.80;11.25;;;13.20;99.90;;;;;;4997863;28;20490;-73
2022/06/08 03:59:49;;;;;;;18.15;10.73;;;13.20;99.90;;;;;;5015029;28;20046;-73
2022/06/08 04:02:15;;;;;;;23.73;12.55;;;13.20;99.90;;;;;;5015066;28;20095;-73
2022/06/08 04:04:42;;;;;;;15.75;9.68;;;13.30;99.90;;;;;;4997809;28;20148;-73
2022/06/08 04:07:08;;;;;;;17.75;10.52;;;13.20;99.90;;;;;;4997105;28;20054;-73
2022/06/08 04:09:34;;;;;;;16.70;9.88;;;13.30;99.90;;;;;;5014926;28;20045;-73
2022/06/08 04:12:01;;;;;;;23.02;11.35;;;13.40;99.90;;;;;;5014967;28;20422;-73
2022/06/08 04:14:26;;;;;;;15.80;10.35;;;13.40;99.90;;;;;;4997672;28;20144;-74
2022/06/08 04:16:52;;;;;;;22.30;12.38;;;13.50;99.90;;;;;;5014539;28;20096;-73
2022/06/08 04:19:19;;;;;;;20.95;10.95;;;13.50;99.90;;;;;;4997725;28;20137;-73
2022/06/08 04:21:45;;;;;;;17.50;10.80;;;13.50;99.90;;;;;;5014812;28;20049;-73
2022/06/08 04:24:13;;;;;;;20.83;11.90;;;13.50;99.90;;;;;;5014708;28;20046;-73
2022/06/08 04:26:39;;;;;;;18.08;11.52;;;13.60;99.90;;;;;;5014978;28;20046;-73
2022/06/08 04:29:06;;;;;;;22.08;12.13;;;13.70;99.90;;;;;;5014633;28;20048;-73
2022/06/08 04:31:34;;;;;;;20.52;12.75;;;13.70;99.90;;;;;;5014619;28;20433;-73
2022/06/08 04:34:01;;;;;;;22.63;13.07;;;13.70;99.90;;;;;;5014547;28;20054;-73
2022/06/08 04:36:27;;;;;;;23.63;13.38;;;13.70;99.90;;;;;;4996894;28;20125;-74
2022/06/08 04:38:53;;;;;;;27.30;14.38;;;13.80;99.90;;;;;;4997183;28;20180;-73
2022/06/08 04:41:20;;;;;;;22.70;13.75;;;14.10;99.90;;;;;;5014470;28;20100;-73
2022/06/08 04:43:46;;;;;;;23.17;13.32;;;14.20;99.90;;;;;;5014470;28;20184;-73
2022/06/08 04:46:15;;;;;;;26.25;12.35;;;14.30;99.90;;;;;;5014318;28;20108;-73
2022/06/08 04:48:46;;;;;;;23.75;12.82;;;14.50;99.90;;;;;;4997216;28;20058;-73
2022/06/08 04:51:12;;;;;;;22.33;13.50;;;14.60;99.90;;;;;;4997055;28;20096;-74
2022/06/08 04:53:39;;;;;;;27.08;15.27;;;14.50;99.90;;;;;;5014274;28;20049;-73
2022/06/08 04:56:06;;;;;;;30.17;15.50;;;14.50;99.90;;;;;;5014175;28;20053;-74
2022/06/08 04:58:31;;;;;;;23.67;15.00;;;14.60;99.90;;;;;;5013752;28;20561;-73
2022/06/08 05:00:57;;;;;;;28.13;15.38;;;14.60;99.90;;;;;;4996509;28;20074;-73
2022/06/08 05:03:23;;;;;;;26.65;15.40;;;14.60;99.90;;;;;;5012754;28;20045;-74
2022/06/08 05:05:49;;;;;;;22.88;14.18;;;14.80;99.90;;;;;;4996338;28;20479;-74
2022/06/08 05:08:18;;;;;;;21.42;15.30;;;14.80;99.90;;;;;;4996209;28;20058;-73
2022/06/08 05:10:45;;;;;;;32.70;18.45;;;14.80;99.90;;;;;;5013857;28;20141;-73
2022/06/08 05:13:11;;;;;;;26.77;16.48;;;14.80;99.90;;;;;;5013913;28;20042;-73
2022/06/08 05:15:40;;;;;;;31.77;17.00;;;14.90;99.90;;;;;;4996548;28;20475;-74
2022/06/08 05:18:07;;;;;;;29.88;16.98;;;14.80;99.90;;;;;;4996574;28;20050;-74
2022/06/08 05:20:34;;;;;;;30.45;18.08;;;14.90;99.90;;;;;;4996278;28;20461;-74
2022/06/08 05:23:00;;;;;;;31.10;18.58;;;14.90;99.90;;;;;;4996351;28;20088;-73
2022/06/08 05:25:33;;;;;;;29.52;18.05;;;14.90;99.90;;;;;;4997004;28;20376;-74
2022/06/08 05:27:59;;;;;;;32.35;17.83;;;14.90;99.90;;;;;;4996572;28;20058;-74
2022/06/08 05:30:26;;;;;;;30.98;19.00;;;15.00;99.90;;;;;;4996662;28;20398;-73
2022/06/08 05:32:53;;;;;;;35.10;19.85;;;15.10;99.90;;;;;;5013615;28;20096;-75
2022/06/08 05:35:20;;;;;;;33.33;19.10;;;15.10;99.90;;;;;;4996189;28;20103;-74
2022/06/08 05:37:46;;;;;;;30.50;18.55;;;15.00;99.90;;;;;;5013818;28;20465;-74
2022/06/08 05:40:12;;;;;;;34.42;20.33;;;15.00;99.90;;;;;;5013950;28;20077;-74
2022/06/08 05:42:38;;;;;;;32.80;18.95;;;15.00;99.90;;;;;;4996159;28;20042;-73
2022/06/08 05:45:07;;;;;;;36.10;20.20;;;15.00;99.90;;;;;;4998138;28;20054;-73
2022/06/08 05:47:32;;;;;;;29.80;18.10;;;15.00;99.90;;;;;;5017877;28;20053;-74
2022/06/08 05:49:58;;;;;;;32.35;19.50;;;15.00;99.90;;;;;;4999973;28;20057;-74
2022/06/08 05:52:25;;;;;;;30.80;18.67;;;15.10;99.90;;;;;;5017548;28;20053;-74
2022/06/08 05:54:52;;;;;;;37.63;19.55;;;15.30;99.90;;;;;;5017606;28;20057;-74
2022/06/08 05:57:18;;;;;;;31.50;19.17;;;15.40;99.90;;;;;;5017574;28;20038;-74
2022/06/08 05:59:43;;;;;;;29.75;18.63;;;15.60;99.90;;;;;;4999997;28;20077;-74
2022/06/08 06:02:13;;;;;;;32.95;18.58;;;15.50;99.90;;;;;;4999901;28;20363;-74
2022/06/08 06:04:39;;;;;;;36.83;19.27;;;15.60;99.90;;;;;;5000091;28;20136;-74
2022/06/08 06:07:05;;;;;;;27.92;17.33;;;15.70;99.90;;;;;;4999430;28;20054;-74
2022/06/08 06:09:32;;;;;;;28.75;17.77;;;15.80;99.90;;;;;;4999657;28;20060;-74
2022/06/08 06:11:58;;;;;;;33.47;18.70;;;16.00;99.90;;;;;;5017160;28;20049;-74
2022/06/08 06:14:24;;;;;;;31.77;18.98;;;16.00;99.90;;;;;;5017156;28;20052;-74
2022/06/08 06:16:50;;;;;;;31.05;17.95;;;16.10;99.90;;;;;;5017215;28;20129;-74
2022/06/08 06:19:15;;;;;;;26.42;17.85;;;16.20;99.90;;;;;;4983422;28;20136;-74
2022/06/08 06:21:41;;;;;;;27.35;17.00;;;16.20;99.90;;;;;;4999670;28;20081;-74
2022/06/08 06:24:07;;;;;;;29.00;16.98;;;16.20;99.90;;;;;;4999442;28;20046;-74
2022/06/08 06:26:33;;;;;;;29.13;18.38;;;16.30;99.90;;;;;;4999713;28;20053;-74
2022/06/08 06:28:58;;;;;;;28.17;17.33;;;16.40;99.90;;;;;;4999562;28;20053;-74
2022/06/08 06:31:32;;;;;;;25.45;16.58;;;16.40;99.90;;;;;;5016830;28;20041;-74
2022/06/08 06:33:58;;;;;;;28.02;17.42;;;16.50;99.90;;;;;;4999550;28;20121;-74
2022/06/08 06:36:24;;;;;;;25.88;17.33;;;16.50;99.90;;;;;;4999222;28;20045;-74
2022/06/08 06:38:49;;;;;;;28.60;17.52;;;16.40;99.90;;;;;;5016728;28;20053;-74
2022/06/08 06:41:16;;;;;;;28.80;16.45;;;16.40;99.90;;;;;;4999224;28;20406;-74
2022/06/08 06:43:43;;;;;;;24.65;17.05;;;16.50;99.90;;;;;;5016436;28;20045;-76
2022/06/08 06:46:10;;;;;;;27.02;16.45;;;16.60;99.90;;;;;;5016454;28;20042;-74
2022/06/08 06:48:36;;;;;;;25.60;16.17;;;16.70;99.90;;;;;;4999049;28;20119;-74
2022/06/08 06:51:03;;;;;;;26.65;16.60;;;16.80;99.90;;;;;;5015985;28;20502;-74
2022/06/08 06:53:29;;;;;;;24.67;15.60;;;17.10;99.90;;;;;;4998862;28;20049;-74
2022/06/08 06:55:55;;;;;;;26.38;15.55;;;17.30;99.90;;;;;;4997904;28;20133;-74
2022/06/08 06:58:22;;;;;;;25.38;15.90;;;17.30;99.90;;;;;;4998873;28;20050;-74
2022/06/08 07:00:48;;;;;;;21.40;14.70;;;17.50;99.90;;;;;;5016189;28;20054;-75
2022/06/08 07:03:13;;;;;;;23.48;16.15;;;17.40;99.90;;;;;;5016090;28;20045;-74
2022/06/08 07:05:39;;;;;;;23.73;14.85;;;17.50;99.90;;;;;;5015797;28;20091;-74
2022/06/08 07:08:06;;;;;;;23.90;15.88;;;17.50;99.90;;;;;;4978870;28;20065;-74
2022/06/08 07:10:32;;;;;;;25.02;15.82;;;17.70;99.90;;;;;;4995698;28;20061;-74
2022/06/08 07:12:58;;;;;;;23.63;14.82;;;17.70;99.90;;;;;;4995511;28;20058;-74
2022/06/08 07:15:24;;;;;;;19.98;14.63;;;17.60;99.90;;;;;;4996528;28;20057;-74
2022/06/08 07:17:51;;;;;;;20.90;14.07;;;17.70;99.90;;;;;;4995647;28;20053;-74
2022/06/08 07:20:18;;;;;;;23.60;14.32;;;17.80;99.90;;;;;;4995377;28;20510;-74
2022/06/08 07:22:44;;;;;;;18.77;13.13;;;17.80;99.90;;;;;;4996336;28;20047;-74
2022/06/08 07:25:12;;;;;;;19.75;12.63;;;17.90;99.90;;;;;;4995336;28;20482;-76
2022/06/08 07:27:38;;;;;;;18.52;12.07;;;17.90;99.90;;;;;;4996040;28;20096;-75
2022/06/08 07:30:05;;;;;;;19.25;12.48;;;18.20;99.90;;;;;;4995191;28;20085;-73
2022/06/08 07:32:31;;;;;;;18.95;12.05;;;18.40;99.90;;;;;;4993745;28;20148;-74
2022/06/08 07:34:57;;;;;;;14.57;9.70;;;18.60;99.90;;;;;;4994720;28;20082;-74
2022/06/08 07:37:24;;;;;;;13.18;8.32;;;18.80;99.90;;;;;;4994637;28;20125;-75
2022/06/08 07:39:50;;;;;;;15.30;9.95;;;18.80;99.90;;;;;;4995530;28;20057;-74
2022/06/08 07:42:17;;;;;;;13.63;9.77;;;18.90;99.90;;;;;;4995882;28;20050;-74
2022/06/08 07:44:43;;;;;;;17.27;10.63;;;18.70;99.90;;;;;;4995563;28;20059;-76
2022/06/08 07:47:09;;;;;;;13.07;9.23;;;18.80;99.90;;;;;;4996536;28;20056;-74
2022/06/08 07:49:39;;;;;;;12.85;9.30;;;18.90;99.90;;;;;;4997001;28;20046;-76
2022/06/08 07:52:22;;;;;;;11.45;7.93;;;19.00;99.90;;;;;;4995763;28;20038;-72
2022/06/08 07:54:49;;;;;;;12.02;7.35;;;18.50;99.90;;;;;;4995755;28;20506;-72
2022/06/08 07:57:21;;;;;;;8.70;6.15;;;18.50;99.90;;;;;;4995703;28;20042;-72
2022/06/08 07:59:48;;;;;;;9.45;5.47;;;18.50;99.90;;;;;;4995918;28;20466;-72
2022/06/08 08:02:14;;;;;;;10.18;5.78;;;18.70;99.90;;;;;;4994502;28;20050;-72
2022/06/08 08:04:40;;;;;;;12.13;5.43;;;18.80;99.90;;;;;;4995407;28;20102;-72
2022/06/08 08:07:06;;;;;;;6.93;5.03;;;19.00;99.90;;;;;;4999203;28;20574;-73
2022/06/08 08:09:34;;;;;;;6.05;5.05;;;19.10;99.90;;;;;;5014612;28;20141;-72
2022/06/08 08:12:00;;;;;;;6.00;4.50;;;19.20;99.90;;;;;;5014656;28;20081;-74
2022/06/08 08:14:26;;;;;;;8.00;4.40;;;19.20;99.90;;;;;;5013959;28;20136;-72
2022/06/08 08:16:52;;;;;;;6.43;3.80;;;19.50;99.90;;;;;;5014650;28;20125;-72
2022/06/08 08:19:21;;;;;;;8.05;4.40;;;19.70;99.90;;;;;;5014513;28;20057;-71
2022/06/08 08:21:48;;;;;;;7.22;4.70;;;19.60;99.90;;;;;;5013445;28;20085;-73
2022/06/08 08:24:19;;;;;;;8.63;4.32;;;19.50;99.90;;;;;;5014714;28;20129;-71
2022/06/08 08:26:47;;;;;;;11.18;4.22;;;19.60;99.90;;;;;;5014679;28;20049;-72
2022/06/08 08:29:13;;;;;;;9.70;4.60;;;19.70;99.90;;;;;;5014599;28;20398;-71
2022/06/08 08:31:40;;;;;;;8.10;4.47;;;19.80;99.90;;;;;;5014535;28;20038;-71
2022/06/08 08:34:06;;;;;;;8.35;4.10;;;20.00;99.90;;;;;;4997158;28;20097;-71
2022/06/08 08:36:31;;;;;;;7.40;3.95;;;19.90;99.90;;;;;;5014033;28;20479;-72
2022/06/08 08:38:58;;;;;;;5.85;3.90;;;20.10;99.90;;;;;;4996966;28;20080;-71
2022/06/08 08:44:33;;;;;;;4.70;3.10;;;20.30;99.90;;;;;;5014384;28;20057;-71
2022/06/08 08:47:10;;;;;;;6.88;3.35;;;20.50;99.90;;;;;;5014564;28;20052;-71
2022/06/08 08:49:42;;;;;;;8.35;2.92;;;20.60;99.90;;;;;;5014403;28;20061;-71
2022/06/08 08:52:50;;;;;;;4.03;1.70;;;20.50;99.90;;;;;;5014499;28;20045;-71
2022/06/08 08:55:48;;;;;;;4.40;1.67;;;20.20;99.90;;;;;;4934340;29;20142;-71
2022/06/08 08:58:42;;;;;;;4.07;1.20;;;20.30;99.90;;;;;;4997025;28;20042;-71
2022/06/08 09:01:17;;;;;;;4.93;1.33;;;20.30;99.90;;;;;;5009826;28;20058;-72
2022/06/08 09:03:46;;;;;;;4.80;2.25;;;20.50;99.90;;;;;;4996647;28;20045;-73
2022/06/08 09:06:13;;;;;;;4.80;2.28;;;20.70;99.90;;;;;;5013644;28;20057;-72
2022/06/08 09:08:43;;;;;;;4.40;2.10;;;20.90;99.90;;;;;;5013429;28;20153;-71
2022/06/08 09:11:18;;;;;;;2.80;1.70;;;21.00;99.90;;;;;;5013897;28;20049;-73
2022/06/08 09:13:50;;;;;;;4.32;1.60;;;21.30;99.90;;;;;;4996352;28;20081;-73
2022/06/08 09:16:27;;;;;;;3.95;1.67;;;21.20;99.90;;;;;;4996500;28;20479;-72
2022/06/08 09:18:53;;;;;;;1.45;0.90;;;21.00;99.90;;;;;;5013296;28;20145;-72
2022/06/08 09:21:34;;;;;;;2.85;1.00;;;20.80;99.90;;;;;;5013460;28;20132;-72
2022/06/08 09:23:59;;;;;;;3.28;1.08;;;21.00;99.90;;;;;;5013773;28;20104;-73
2022/06/08 09:26:25;;;;;;;2.90;1.40;;;21.10;99.90;;;;;;5013653;28;20053;-73
2022/06/08 09:28:58;;;;;;;4.57;1.10;;;21.00;99.90;;;;;;5013677;28;20104;-76
2022/06/08 09:31:31;;;;;;;1.80;1.02;;;21.20;99.90;;;;;;5013443;28;20112;-73
2022/06/08 09:34:11;;;;;;;3.78;1.67;;;21.00;99.90;;;;;;5013539;28;20467;-69
2022/06/08 09:36:36;;;;;;;5.10;1.33;;;20.90;99.90;;;;;;5013039;28;20529;-70
2022/06/08 09:39:02;;;;;;;4.35;1.33;;;21.10;99.90;;;;;;5013472;28;20077;-71
2022/06/08 09:41:46;;;;;;;3.53;1.50;;;21.20;99.90;;;;;;5012342;28;20076;-71
2022/06/08 09:44:19;;;;;;;3.47;1.60;;;21.30;99.90;;;;;;4994913;28;20501;-72
2022/06/08 09:53:02;;;;;;;2.55;1.48;;;21.40;99.90;;;;;;5013599;28;20053;-71
2022/06/08 09:55:34;;;;;;;3.45;1.30;;;21.40;99.90;;;;;;4996502;28;20058;-71
2022/06/08 09:58:18;;;;;;;5.40;2.10;;;21.70;99.90;;;;;;5013261;28;20514;-70
2022/06/08 10:00:48;;;;;;;4.93;2.25;;;22.00;99.90;;;;;;5013613;28;20165;-70
2022/06/08 10:03:39;;;;;;;6.63;2.88;;;22.30;99.90;;;;;;5013703;28;20054;-70
2022/06/08 10:06:23;;;;;;;5.60;2.53;;;22.60;99.90;;;;;;5013104;28;20052;-72
2022/06/08 10:09:02;;;;;;;6.03;2.20;;;22.60;99.90;;;;;;5014040;28;20085;-72
2022/06/08 10:11:46;;;;;;;3.33;2.03;;;22.60;99.90;;;;;;5014061;28;20096;-71
2022/06/08 10:14:31;;;;;;;9.38;2.97;;;22.40;99.90;;;;;;5013393;28;20045;-72
2022/06/08 10:17:11;;;;;;;6.35;3.38;;;21.90;99.90;;;;;;5013709;28;20046;-71
2022/06/08 10:20:11;;;;;;;4.85;2.65;;;21.40;99.90;;;;;;5013372;28;20042;-71
2022/06/08 10:22:42;;;;;;;5.57;3.25;;;21.50;99.90;;;;;;5013352;28;20045;-71
2022/06/08 10:25:22;;;;;;;4.65;2.88;;;21.70;99.90;;;;;;5013270;28;20081;-71
2022/06/08 10:27:57;;;;;;;4.85;2.80;;;21.90;99.90;;;;;;5013570;28;20053;-71
2022/06/08 10:30:41;;;;;;;5.20;2.90;;;21.80;99.90;;;;;;5013855;28;20499;-71
2022/06/08 10:33:19;;;;;;;6.53;3.10;;;21.70;99.90;;;;;;5016965;28;20092;-72
2022/06/08 10:35:54;;;;;;;6.20;3.33;;;21.60;99.90;;;;;;5016568;28;20280;-71
2022/06/08 10:38:30;;;;;;;4.78;3.13;;;21.50;99.90;;;;;;4999510;28;20058;-73
2022/06/08 10:44:03;;;;;;;6.20;2.95;;;21.60;99.90;;;;;;5016744;28;20138;-73
2022/06/08 10:46:40;;;;;;;5.13;2.88;;;21.50;99.90;;;;;;4999157;28;20368;-71
2022/06/08 10:49:18;;;;;;;5.60;3.58;;;21.60;99.90;;;;;;5016809;28;20041;-71
2022/06/08 10:51:44;;;;;;;7.93;4.20;;;21.50;99.90;;;;;;5016595;28;20046;-73
2022/06/08 10:57:35;;;;;;;7.45;3.58;;;21.90;99.90;;;;;;5016475;28;20116;-71
2022/06/08 11:00:19;;;;;;;5.45;3.60;;;22.30;99.90;;;;;;5016326;28;20053;-72
2022/06/08 11:03:03;;;;;;;5.95;2.90;;;22.40;99.90;;;;;;4998906;28;20513;-72
2022/06/08 11:05:35;;;;;;;5.53;3.50;;;22.10;99.90;;;;;;5016102;28;20064;-73
2022/06/08 11:08:10;;;;;;;4.50;3.00;;;22.20;99.90;;;;;;5016226;28;20058;-72
2022/06/08 11:10:44;;;;;;;5.28;2.90;;;21.90;99.90;;;;;;5016334;28;20089;-71
2022/06/08 11:13:22;;;;;;;5.40;3.20;;;21.60;99.90;;;;;;5016141;28;20042;-72
2022/06/08 11:16:08;;;;;;;6.60;3.10;;;21.40;99.90;;;;;;5016407;28;20050;-71
2022/06/08 11:18:48;;;;;;;4.88;2.63;;;21.50;99.90;;;;;;5016172;28;20045;-74
2022/06/08 11:21:14;;;;;;;4.43;3.20;;;21.60;99.90;;;;;;5016089;28;20129;-76
2022/06/08 11:23:51;;;;;;;5.10;2.85;;;21.80;99.90;;;;;;4998430;28;20129;-76
2022/06/08 11:26:21;;;;;;;6.60;2.58;;;21.20;99.90;;;;;;4998848;28;20053;-75
2022/06/08 11:28:50;;;;;;;4.45;2.42;;;21.30;99.90;;;;;;4998585;28;20479;-74
2022/06/08 11:31:25;;;;;;;4.40;1.92;;;21.40;99.90;;;;;;5015878;28;20050;-75
2022/06/08 11:34:09;;;;;;;6.78;2.33;;;21.40;99.90;;;;;;5015748;28;20054;-75
2022/06/08 11:36:50;;;;;;;5.03;2.20;;;21.40;99.90;;;;;;4982065;28;20054;-73
2022/06/08 11:39:38;;;;;;;3.97;1.88;;;21.30;99.90;;;;;;5000358;28;20050;-72
2022/06/08 11:42:22;;;;;;;4.05;1.90;;;21.50;99.90;;;;;;4997523;28;20078;-72
2022/06/08 11:44:57;;;;;;;6.25;2.25;;;21.70;99.90;;;;;;5015522;28;20054;-81
2022/06/08 11:47:26;;;;;;;5.63;2.53;;;21.40;99.90;;;;;;4981851;28;20144;-72
2022/06/08 11:50:09;;;;;;;3.58;1.70;;;21.30;99.90;;;;;;5015679;28;20089;-73
2022/06/08 11:52:38;;;;;;;3.83;1.90;;;21.40;99.90;;;;;;4998172;28;20454;-73
2022/06/08 11:55:16;;;;;;;5.22;2.50;;;21.30;99.90;;;;;;5015322;28;20046;-73
2022/06/08 11:57:53;;;;;;;5.22;2.30;;;21.40;99.90;;;;;;5015355;28;20553;-76
2022/06/08 12:00:27;;;;;;;4.45;3.00;;;21.60;99.90;;;;;;5015232;28;20058;-74
2022/06/08 12:03:00;;;;;;;6.70;3.30;;;21.60;99.90;;;;;;5015097;28;20046;-78
2022/06/08 12:05:31;;;;;;;7.82;3.10;;;21.40;99.90;;;;;;4998103;28;20054;-78
2022/06/08 12:08:03;;;;;;;6.38;3.60;;;21.30;99.90;;;;;;5014428;28;20491;-75
2022/06/08 12:10:33;;;;;;;7.68;3.35;;;21.20;99.90;;;;;;5015071;28;20494;-74
2022/06/08 12:12:59;;;;;;;8.07;3.83;;;21.10;99.90;;;;;;5014964;28;20125;-74
2022/06/08 12:15:48;;;;;;;7.40;3.58;;;21.00;99.90;;;;;;5015001;28;20045;-75
2022/06/08 12:18:36;;;;;;;6.30;3.85;;;21.00;99.90;;;;;;5014984;28;20128;-74
2022/06/08 12:21:20;;;;;;;7.57;4.07;;;20.80;99.90;;;;;;4997878;28;20045;-75
2022/06/08 12:24:19;;;;;;;8.90;5.07;;;20.90;99.90;;;;;;5014831;28;20275;-75
2022/06/08 12:26:51;;;;;;;7.18;4.43;;;20.90;99.90;;;;;;5014769;28;20475;-74
2022/06/08 12:29:48;;;;;;;9.02;4.50;;;20.90;99.90;;;;;;5014660;28;20049;-74
2022/06/08 12:32:19;;;;;;;7.28;5.07;;;20.90;99.90;;;;;;5014656;28;20045;-75
2022/06/08 12:34:46;;;;;;;9.63;4.57;;;20.90;99.90;;;;;;5014603;28;20058;-75
2022/06/08 12:37:44;;;;;;;12.68;6.15;;;20.60;99.90;;;;;;5014308;28;20487;-74
2022/06/08 12:40:16;;;;;;;8.93;4.00;;;20.00;99.90;;;;;;4998453;28;20057;-73
2022/06/08 12:42:51;;;;;;;12.55;4.72;;;19.40;99.90;;;;;;4997036;28;20050;-74
2022/06/08 12:45:33;;;;;;;10.57;3.78;;;19.40;99.90;;;;;;5017822;28;20479;-72
2022/06/08 12:48:14;;;;;;;8.98;2.60;;;19.00;99.90;;;;;;5014447;28;20051;-72
2022/06/08 12:50:40;;;;;;;6.35;2.65;;;18.60;99.90;;;;;;5014590;28;20085;-72
2022/06/08 12:53:06;;;;;;;10.63;3.03;;;18.60;99.90;;;;;;5014176;28;20038;-73
2022/06/08 12:55:35;;;;;;;4.32;1.52;;;18.50;99.90;;;;;;4996161;28;20046;-73
2022/06/08 12:58:02;;;;;;;9.23;1.60;;;18.40;99.90;;;;;;5014247;28;20050;-73
2022/06/08 13:00:30;;;;;;;10.23;1.80;;;18.40;99.90;;;;;;5014252;28;20391;-73
2022/06/08 13:03:02;;;;;;;6.82;1.73;;;18.40;99.90;;;;;;5014202;28;20115;-73
2022/06/08 13:05:35;;;;;;;5.65;1.70;;;18.40;99.90;;;;;;5014249;28;20459;-73
2022/06/08 13:08:02;;;;;;;6.22;1.90;;;18.10;99.90;;;;;;5013940;28;20057;-72
2022/06/08 13:10:30;;;;;;;3.80;1.40;;;17.90;99.90;;;;;;5014098;28;20056;-72
2022/06/08 13:13:03;;;;;;;8.38;1.65;;;17.70;99.90;;;;;;5014023;28;20042;-72
2022/06/08 13:15:33;;;;;;;7.00;1.45;;;17.60;99.90;;;;;;5014185;28;20128;-72
2022/06/08 13:18:02;;;;;;;3.22;1.27;;;17.70;99.90;;;;;;5014014;28;20045;-73
2022/06/08 13:20:31;;;;;;;4.30;1.52;;;17.60;99.90;;;;;;4996596;28;20050;-72